Time;durP1;ratioP1;P1;durP2;ratioP2;P2;SDS_P1;SDS_P2;PMS_P1;PMS_P2;Temp;Humidity;BMP_temperature;BMP_pressure;BME280_temperature;BME280_humidity;BME280_pressure;Samples;Min_cycle;Max_cycle;Signal;HPM_P1;HPM_P2
2022/08/03 00:01:25;;;;;;;9.10;2.20;;;;;;;;;;4899530;29;20100;-57
2022/08/03 00:03:50;;;;;;;3.83;2.40;;;;;;;;;;4899533;29;20082;-54
2022/08/03 00:06:16;;;;;;;2.72;2.30;;;;;;;;;;4899740;29;20028;-56
2022/08/03 00:08:41;;;;;;;3.65;2.25;;;;;;;;;;4899752;29;20059;-58
2022/08/03 00:11:06;;;;;;;2.72;2.20;;;;;;;;;;4899347;29;20088;-57
2022/08/03 00:13:32;;;;;;;2.97;2.40;;;;;;;;;;4899255;29;20072;-57
2022/08/03 00:15:57;;;;;;;5.97;2.42;;;;;;;;;;4899314;29;20182;-44
2022/08/03 00:18:23;;;;;;;4.90;2.28;;;;;;;;;;4899465;29;20474;-56
2022/08/03 00:20:48;;;;;;;3.60;2.33;;;;;;;;;;4899471;29;20028;-58
2022/08/03 00:23:14;;;;;;;5.55;2.38;;;;;;;;;;4899147;29;20033;-47
2022/08/03 00:25:39;;;;;;;9.13;2.20;;;;;;;;;;4898051;29;20039;-58
2022/08/03 00:28:05;;;;;;;3.67;2.20;;;;;;;;;;4899332;29;20044;-48
2022/08/03 00:30:31;;;;;;;3.58;2.35;;;;;;;;;;4898349;29;20032;-53
2022/08/03 00:32:58;;;;;;;5.47;2.15;;;;;;;;;;4899030;29;20557;-52
2022/08/03 00:35:24;;;;;;;2.40;2.20;;;;;;;;;;4899153;29;20036;-58
2022/08/03 00:37:50;;;;;;;2.67;2.47;;;;;;;;;;4899217;29;20386;-50
2022/08/03 00:40:17;;;;;;;3.72;1.92;;;;;;;;;;4899074;29;20036;-55
2022/08/03 00:42:47;;;;;;;4.53;2.20;;;;;;;;;;4898836;29;20546;-51
2022/08/03 00:45:13;;;;;;;5.63;2.35;;;;;;;;;;4899014;29;20060;-51
2022/08/03 00:47:38;;;;;;;4.05;2.40;;;;;;;;;;4898727;29;20028;-58
2022/08/03 00:50:04;;;;;;;3.08;2.40;;;;;;;;;;4898555;29;20055;-51
2022/08/03 00:52:29;;;;;;;6.88;2.30;;;;;;;;;;4898808;29;20386;-55
2022/08/03 00:54:55;;;;;;;7.82;2.40;;;;;;;;;;4897220;29;20537;-51
2022/08/03 00:57:20;;;;;;;4.43;2.40;;;;;;;;;;4898578;29;20064;-54
2022/08/03 00:59:46;;;;;;;2.83;2.53;;;;;;;;;;4898797;29;20036;-54
2022/08/03 01:02:11;;;;;;;2.35;2.15;;;;;;;;;;4898442;29;20031;-57
2022/08/03 01:04:37;;;;;;;10.55;2.90;;;;;;;;;;4898618;29;20021;-58
2022/08/03 01:07:14;;;;;;;6.05;2.60;;;;;;;;;;4898405;29;20406;-48
2022/08/03 01:09:57;;;;;;;4.10;2.30;;;;;;;;;;4898581;29;20059;-58
2022/08/03 01:12:44;;;;;;;5.78;2.80;;;;;;;;;;4898259;29;20064;-58
2022/08/03 01:15:24;;;;;;;4.88;2.45;;;;;;;;;;4898386;29;20036;-56
2022/08/03 01:18:00;;;;;;;5.88;2.50;;;;;;;;;;4898188;29;20033;-54
2022/08/03 01:20:31;;;;;;;3.97;2.60;;;;;;;;;;4898413;29;20104;-52
2022/08/03 01:23:44;;;;;;;4.93;2.42;;;;;;;;;;4898189;29;20039;-58
2022/08/03 01:26:22;;;;;;;4.13;2.20;;;;;;;;;;4898360;29;20028;-58
2022/08/03 01:29:22;;;;;;;3.65;2.30;;;;;;;;;;4898049;29;20028;-57
2022/08/03 01:31:55;;;;;;;2.53;2.33;;;;;;;;;;4882921;29;20047;-44
2022/08/03 01:34:24;;;;;;;7.25;2.97;;;;;;;;;;4898134;29;20125;-51
2022/08/03 01:36:52;;;;;;;3.67;2.45;;;;;;;;;;4897900;29;20032;-59
2022/08/03 01:39:20;;;;;;;3.95;2.47;;;;;;;;;;4898128;29;20042;-58
2022/08/03 01:41:52;;;;;;;3.08;2.55;;;;;;;;;;4898061;29;20038;-46
2022/08/03 01:44:19;;;;;;;3.72;2.78;;;;;;;;;;4898129;29;20052;-50
2022/08/03 01:46:48;;;;;;;4.55;2.60;;;;;;;;;;4897906;29;20035;-58
2022/08/03 01:49:15;;;;;;;3.78;3.00;;;;;;;;;;4897498;29;20509;-57
2022/08/03 01:51:46;;;;;;;4.72;2.80;;;;;;;;;;4897542;29;20052;-59
2022/08/03 01:54:12;;;;;;;3.22;2.72;;;;;;;;;;4897880;29;20052;-49
2022/08/03 01:56:39;;;;;;;4.35;3.03;;;;;;;;;;4897879;29;20385;-44
2022/08/03 01:59:07;;;;;;;8.32;3.33;;;;;;;;;;4897852;29;20033;-52
2022/08/03 02:01:35;;;;;;;3.28;2.97;;;;;;;;;;4897816;29;20123;-43
2022/08/03 02:04:02;;;;;;;4.82;2.78;;;;;;;;;;4897706;29;20028;-47
2022/08/03 02:06:30;;;;;;;3.40;2.88;;;;;;;;;;4896223;29;20029;-47
2022/08/03 02:08:56;;;;;;;3.70;3.00;;;;;;;;;;4897692;29;20115;-58
2022/08/03 02:11:22;;;;;;;4.35;2.53;;;;;;;;;;4897695;29;20116;-57
2022/08/03 02:13:49;;;;;;;2.75;2.53;;;;;;;;;;4897621;29;20025;-44
2022/08/03 02:16:17;;;;;;;5.57;2.92;;;;;;;;;;4897386;29;20029;-56
2022/08/03 02:18:44;;;;;;;2.92;2.60;;;;;;;;;;4897401;29;20037;-58
2022/08/03 02:21:10;;;;;;;3.35;3.05;;;;;;;;;;4897609;29;20104;-50
2022/08/03 02:23:37;;;;;;;3.60;3.17;;;;;;;;;;4897526;29;20020;-59
2022/08/03 02:26:06;;;;;;;3.85;3.08;;;;;;;;;;4897536;29;20035;-58
2022/08/03 02:28:34;;;;;;;3.53;3.00;;;;;;;;;;4897488;29;20119;-59
2022/08/03 02:31:03;;;;;;;4.68;3.00;;;;;;;;;;4897240;29;20035;-59
2022/08/03 02:33:39;;;;;;;3.83;3.35;;;;;;;;;;4897347;29;20024;-49
2022/08/03 02:36:05;;;;;;;3.53;3.20;;;;;;;;;;4897186;29;20772;-58
2022/08/03 02:38:35;;;;;;;8.15;3.45;;;;;;;;;;4897139;29;20172;-48
2022/08/03 02:41:05;;;;;;;3.50;3.17;;;;;;;;;;4897182;29;20064;-45
2022/08/03 02:43:34;;;;;;;4.80;3.42;;;;;;;;;;4897432;29;20032;-57
2022/08/03 02:46:00;;;;;;;4.88;3.08;;;;;;;;;;4897363;29;20047;-55
2022/08/03 02:48:28;;;;;;;4.13;3.15;;;;;;;;;;4897146;29;20474;-54
2022/08/03 02:50:55;;;;;;;5.80;3.45;;;;;;;;;;4896950;29;20397;-53
2022/08/03 02:53:22;;;;;;;3.10;2.80;;;;;;;;;;4897912;29;20048;-47
2022/08/03 02:55:48;;;;;;;5.97;3.10;;;;;;;;;;4900710;29;20033;-47
2022/08/03 02:58:18;;;;;;;3.67;2.70;;;;;;;;;;4900998;29;20084;-55
2022/08/03 03:00:44;;;;;;;8.13;3.20;;;;;;;;;;4900928;29;20032;-56
2022/08/03 03:03:10;;;;;;;9.10;3.08;;;;;;;;;;4900950;29;20060;-56
2022/08/03 03:05:36;;;;;;;3.33;2.80;;;;;;;;;;4900583;29;20063;-57
2022/08/03 03:08:02;;;;;;;5.43;3.13;;;;;;;;;;4900611;29;20028;-54
2022/08/03 03:10:28;;;;;;;6.20;3.35;;;;;;;;;;4900505;29;20350;-47
2022/08/03 03:12:58;;;;;;;3.65;3.03;;;;;;;;;;4900486;29;20362;-50
2022/08/03 03:15:27;;;;;;;3.30;3.00;;;;;;;;;;4900615;29;20040;-53
2022/08/03 03:17:53;;;;;;;3.28;2.63;;;;;;;;;;4900636;29;20047;-42
2022/08/03 03:20:20;;;;;;;7.78;3.33;;;;;;;;;;4900616;29;20028;-45
2022/08/03 03:22:48;;;;;;;4.90;3.10;;;;;;;;;;4900600;29;20063;-47
2022/08/03 03:25:14;;;;;;;3.25;2.97;;;;;;;;;;4900474;29;20478;-58
2022/08/03 03:27:39;;;;;;;4.40;3.10;;;;;;;;;;4900448;29;20060;-41
2022/08/03 03:30:05;;;;;;;3.00;2.75;;;;;;;;;;4900392;29;20037;-58
2022/08/03 03:32:31;;;;;;;17.33;3.78;;;;;;;;;;4900044;29;20466;-46
2022/08/03 03:34:59;;;;;;;8.90;3.75;;;;;;;;;;4900325;29;20097;-57
2022/08/03 03:37:25;;;;;;;11.55;3.67;;;;;;;;;;4900303;29;20056;-55
2022/08/03 03:39:54;;;;;;;14.38;3.17;;;;;;;;;;4900052;29;20089;-58
2022/08/03 03:42:20;;;;;;;8.88;3.20;;;;;;;;;;4900271;29;20260;-50
2022/08/03 03:44:45;;;;;;;5.10;3.30;;;;;;;;;;4900139;29;20561;-42
2022/08/03 03:47:12;;;;;;;7.45;3.20;;;;;;;;;;4899933;29;20033;-43
2022/08/03 03:49:38;;;;;;;3.38;3.08;;;;;;;;;;4899858;29;20064;-42
2022/08/03 03:52:04;;;;;;;5.03;3.13;;;;;;;;;;4899748;29;20035;-43
2022/08/03 03:54:49;;;;;;;3.63;3.00;;;;;;;;;;4899571;29;20040;-45
2022/08/03 03:57:15;;;;;;;11.00;2.95;;;;;;;;;;4899366;29;20126;-57
2022/08/03 03:59:41;;;;;;;5.93;3.20;;;;;;;;;;4899565;29;20473;-50
2022/08/03 04:02:08;;;;;;;3.88;2.90;;;;;;;;;;4899813;29;20048;-51
2022/08/03 04:12:59;;;;;;;3.85;2.60;;;;;;;;;;4899633;29;20083;-58
2022/08/03 04:15:27;;;;;;;5.38;3.00;;;;;;;;;;4899469;29;20029;-57
2022/08/03 04:17:57;;;;;;;2.80;2.50;;;;;;;;;;4899240;29;20123;-52
2022/08/03 04:20:26;;;;;;;5.82;3.13;;;;;;;;;;4899300;29;20370;-54
2022/08/03 04:22:54;;;;;;;5.07;2.75;;;;;;;;;;4899470;29;20047;-55
2022/08/03 04:25:23;;;;;;;8.45;3.50;;;;;;;;;;4899181;29;20101;-51
2022/08/03 04:27:51;;;;;;;8.13;3.30;;;;;;;;;;4899400;29;20028;-51
2022/08/03 04:30:18;;;;;;;5.07;2.90;;;;;;;;;;4899068;29;20024;-44
2022/08/03 04:32:50;;;;;;;6.40;3.10;;;;;;;;;;4899280;29;20032;-57
2022/08/03 04:35:17;;;;;;;11.43;3.25;;;;;;;;;;4898960;29;20044;-56
2022/08/03 04:37:46;;;;;;;3.00;2.70;;;;;;;;;;4898834;29;20509;-44
2022/08/03 04:40:24;;;;;;;3.30;2.97;;;;;;;;;;4899080;29;20040;-55
2022/08/03 04:42:52;;;;;;;4.85;2.78;;;;;;;;;;4899185;29;20047;-53
2022/08/03 04:45:19;;;;;;;4.15;2.80;;;;;;;;;;4899098;29;20419;-52
2022/08/03 04:47:46;;;;;;;6.15;3.20;;;;;;;;;;4898879;29;20025;-56
2022/08/03 04:50:12;;;;;;;7.20;3.28;;;;;;;;;;4898359;29;20056;-56
2022/08/03 04:52:38;;;;;;;5.45;3.08;;;;;;;;;;4898558;29;20088;-51
2022/08/03 04:55:03;;;;;;;5.82;3.13;;;;;;;;;;4898791;29;20037;-53
2022/08/03 04:57:29;;;;;;;4.28;2.95;;;;;;;;;;4898776;29;20099;-55
2022/08/03 04:59:55;;;;;;;4.30;3.33;;;;;;;;;;4898755;29;20040;-50
2022/08/03 05:02:21;;;;;;;3.72;3.40;;;;;;;;;;4898490;29;20104;-51
2022/08/03 05:04:46;;;;;;;7.47;3.20;;;;;;;;;;4898389;29;20036;-44
2022/08/03 05:07:12;;;;;;;7.93;3.20;;;;;;;;;;4898569;29;20033;-53
2022/08/03 05:09:38;;;;;;;4.20;3.80;;;;;;;;;;4898531;29;20059;-52
2022/08/03 05:12:05;;;;;;;6.45;3.38;;;;;;;;;;4898556;29;20458;-56
2022/08/03 05:14:31;;;;;;;5.88;3.60;;;;;;;;;;4897259;29;20043;-56
2022/08/03 05:16:57;;;;;;;4.47;3.53;;;;;;;;;;4897836;29;20119;-56
2022/08/03 05:19:22;;;;;;;6.13;3.97;;;;;;;;;;4898440;29;20053;-47
2022/08/03 05:21:48;;;;;;;7.40;3.80;;;;;;;;;;4898354;29;20107;-57
2022/08/03 05:24:13;;;;;;;12.70;3.50;;;;;;;;;;4897929;29;20040;-49
2022/08/03 05:26:39;;;;;;;4.15;3.75;;;;;;;;;;4898250;29;20044;-52
2022/08/03 05:29:04;;;;;;;7.15;3.92;;;;;;;;;;4898496;29;20453;-48
2022/08/03 05:31:29;;;;;;;8.50;3.92;;;;;;;;;;4897846;29;20025;-52
2022/08/03 05:33:56;;;;;;;9.07;3.70;;;;;;;;;;4898056;29;20032;-46
2022/08/03 05:36:22;;;;;;;5.03;4.15;;;;;;;;;;4897625;29;20398;-55
2022/08/03 05:38:47;;;;;;;4.55;3.63;;;;;;;;;;4896431;29;20035;-54
2022/08/03 05:41:12;;;;;;;4.80;3.42;;;;;;;;;;4897229;29;20040;-46
2022/08/03 05:43:38;;;;;;;6.70;3.83;;;;;;;;;;4897680;29;20033;-54
2022/08/03 05:46:03;;;;;;;4.95;3.25;;;;;;;;;;4897962;29;20067;-46
2022/08/03 05:48:29;;;;;;;4.03;3.63;;;;;;;;;;4897960;29;20557;-52
2022/08/03 05:50:54;;;;;;;4.75;3.22;;;;;;;;;;4897393;29;20498;-52
2022/08/03 05:53:20;;;;;;;4.95;3.50;;;;;;;;;;4897696;29;20048;-52
2022/08/03 05:55:45;;;;;;;4.25;3.85;;;;;;;;;;4897783;29;20044;-54
2022/08/03 05:58:11;;;;;;;6.65;3.47;;;;;;;;;;4897853;29;20055;-53
2022/08/03 06:00:36;;;;;;;3.92;3.60;;;;;;;;;;4897538;29;20111;-52
2022/08/03 06:03:01;;;;;;;5.57;3.63;;;;;;;;;;4897400;29;20036;-55
2022/08/03 06:05:27;;;;;;;8.73;3.90;;;;;;;;;;4897699;29;20037;-51
2022/08/03 06:07:53;;;;;;;3.70;3.40;;;;;;;;;;4897734;29;20410;-54
2022/08/03 06:10:19;;;;;;;4.22;3.83;;;;;;;;;;4897719;29;20166;-54
2022/08/03 06:12:48;;;;;;;5.30;3.83;;;;;;;;;;4897309;29;20033;-50
2022/08/03 06:15:14;;;;;;;4.57;3.97;;;;;;;;;;4897505;29;20071;-48
2022/08/03 06:17:49;;;;;;;4.18;3.78;;;;;;;;;;4897528;29;20028;-52
2022/08/03 06:20:17;;;;;;;4.60;3.75;;;;;;;;;;4897648;29;20168;-51
2022/08/03 06:22:42;;;;;;;4.15;3.50;;;;;;;;;;4897477;29;20112;-53
2022/08/03 06:25:08;;;;;;;4.10;3.70;;;;;;;;;;4897494;29;20115;-51
2022/08/03 06:27:35;;;;;;;4.00;3.60;;;;;;;;;;4897357;29;20084;-56
2022/08/03 06:30:01;;;;;;;3.95;3.65;;;;;;;;;;4900493;29;20100;-50
2022/08/03 06:32:26;;;;;;;8.02;3.13;;;;;;;;;;4901473;29;20048;-51
2022/08/03 06:34:52;;;;;;;4.25;3.85;;;;;;;;;;4901360;29;20028;-51
2022/08/03 06:37:17;;;;;;;3.38;3.08;;;;;;;;;;4900930;29;20029;-47
2022/08/03 06:39:43;;;;;;;5.70;4.13;;;;;;;;;;4901368;29;20041;-53
2022/08/03 06:42:09;;;;;;;5.65;3.58;;;;;;;;;;4900922;29;20465;-53
2022/08/03 06:44:36;;;;;;;4.65;3.63;;;;;;;;;;4900911;29;20029;-50
2022/08/03 06:47:01;;;;;;;5.13;4.05;;;;;;;;;;4900879;29;20494;-48
2022/08/03 06:49:27;;;;;;;3.88;3.58;;;;;;;;;;4900622;29;20115;-52
2022/08/03 06:51:52;;;;;;;4.65;3.80;;;;;;;;;;4900766;29;20044;-54
2022/08/03 06:54:21;;;;;;;6.97;4.45;;;;;;;;;;4900696;29;20044;-50
2022/08/03 06:56:46;;;;;;;4.30;3.90;;;;;;;;;;4900935;29;20033;-55
2022/08/03 06:59:12;;;;;;;4.40;3.80;;;;;;;;;;4900973;29;20508;-54
2022/08/03 07:01:37;;;;;;;4.82;3.45;;;;;;;;;;4900612;29;20028;-51
2022/08/03 07:04:03;;;;;;;3.65;3.35;;;;;;;;;;4900812;29;20032;-49
2022/08/03 07:06:28;;;;;;;4.22;3.83;;;;;;;;;;4900611;29;20430;-47
2022/08/03 07:08:55;;;;;;;7.03;4.10;;;;;;;;;;4900394;29;20389;-46
2022/08/03 07:11:20;;;;;;;4.03;3.45;;;;;;;;;;4900720;29;20033;-49
2022/08/03 07:13:46;;;;;;;8.02;4.20;;;;;;;;;;4899127;29;20028;-46
2022/08/03 07:16:11;;;;;;;4.00;3.60;;;;;;;;;;4900426;29;20048;-49
2022/08/03 07:18:38;;;;;;;4.80;3.70;;;;;;;;;;4900581;29;20033;-53
2022/08/03 07:21:03;;;;;;;5.07;3.78;;;;;;;;;;4900523;29;20029;-51
2022/08/03 07:23:28;;;;;;;4.65;3.67;;;;;;;;;;4899134;29;20362;-54
2022/08/03 07:25:54;;;;;;;3.78;3.47;;;;;;;;;;4900231;29;20041;-49
2022/08/03 07:28:19;;;;;;;5.03;3.55;;;;;;;;;;4900379;29;20439;-53
2022/08/03 07:30:45;;;;;;;3.70;3.40;;;;;;;;;;4900469;29;20024;-51
2022/08/03 07:33:10;;;;;;;4.38;3.20;;;;;;;;;;4900381;29;20032;-48
2022/08/03 07:35:36;;;;;;;3.83;3.53;;;;;;;;;;4899972;29;20474;-51
2022/08/03 07:38:02;;;;;;;4.35;3.78;;;;;;;;;;4900394;29;20033;-55
2022/08/03 07:40:27;;;;;;;6.22;3.97;;;;;;;;;;4899654;29;20025;-54
2022/08/03 07:42:53;;;;;;;4.07;3.42;;;;;;;;;;4900012;29;20036;-54
2022/08/03 07:45:18;;;;;;;7.32;3.70;;;;;;;;;;4900093;29;20036;-52
2022/08/03 07:47:43;;;;;;;3.92;3.53;;;;;;;;;;4900016;29;20020;-55
2022/08/03 07:50:09;;;;;;;9.55;3.78;;;;;;;;;;4899486;29;20041;-54
2022/08/03 07:52:47;;;;;;;10.65;3.90;;;;;;;;;;4899755;29;20033;-55
2022/08/03 07:55:12;;;;;;;3.35;3.13;;;;;;;;;;4899896;29;20033;-54
2022/08/03 07:57:38;;;;;;;4.38;3.38;;;;;;;;;;4899658;29;20029;-55
2022/08/03 08:00:08;;;;;;;8.52;3.45;;;;;;;;;;4899931;29;20036;-54
2022/08/03 08:02:34;;;;;;;3.60;3.30;;;;;;;;;;4899054;29;20730;-51
2022/08/03 08:04:59;;;;;;;3.30;3.03;;;;;;;;;;4899414;29;20056;-53
2022/08/03 08:07:25;;;;;;;5.47;3.30;;;;;;;;;;4899649;29;20385;-53
2022/08/03 08:09:50;;;;;;;3.38;3.08;;;;;;;;;;4899423;29;20029;-54
2022/08/03 08:12:16;;;;;;;5.10;3.65;;;;;;;;;;4899292;29;20033;-51
2022/08/03 08:14:44;;;;;;;7.05;3.40;;;;;;;;;;4899326;29;20039;-53
2022/08/03 08:17:10;;;;;;;3.50;3.20;;;;;;;;;;4899406;29;20043;-53
2022/08/03 08:19:35;;;;;;;3.65;3.35;;;;;;;;;;4899098;29;20461;-54
2022/08/03 08:22:01;;;;;;;3.47;3.17;;;;;;;;;;4899146;29;20037;-58
2022/08/03 08:24:29;;;;;;;3.38;2.80;;;;;;;;;;4898959;29;20029;-55
2022/08/03 08:26:54;;;;;;;3.05;2.70;;;;;;;;;;4898960;29;20473;-50
2022/08/03 08:29:21;;;;;;;2.75;2.55;;;;;;;;;;4898549;29;20112;-54
2022/08/03 08:31:48;;;;;;;3.38;3.08;;;;;;;;;;4899265;29;20050;-53
2022/08/03 08:34:13;;;;;;;2.60;2.40;;;;;;;;;;4897925;29;20035;-50
2022/08/03 08:36:39;;;;;;;3.33;2.40;;;;;;;;;;4899116;29;20037;-56
2022/08/03 08:39:04;;;;;;;4.28;2.78;;;;;;;;;;4898971;29;20462;-56
2022/08/03 08:41:33;;;;;;;3.38;2.38;;;;;;;;;;4908051;29;20040;-47
2022/08/03 08:43:59;;;;;;;3.08;2.50;;;;;;;;;;4904698;29;20029;-48
2022/08/03 08:46:25;;;;;;;2.33;2.13;;;;;;;;;;4915094;29;20020;-53
2022/08/03 08:48:52;;;;;;;3.80;2.60;;;;;;;;;;4917527;29;20568;-50
2022/08/03 08:51:19;;;;;;;3.08;2.88;;;;;;;;;;4916787;29;20055;-50
2022/08/03 08:53:50;;;;;;;4.53;3.05;;;;;;;;;;4917334;29;20088;-45
2022/08/03 08:56:16;;;;;;;5.28;2.70;;;;;;;;;;4914883;29;20597;-44
2022/08/03 08:58:47;;;;;;;4.50;2.85;;;;;;;;;;4914504;29;20031;-54
2022/08/03 09:01:13;;;;;;;4.93;2.60;;;;;;;;;;4917208;29;20099;-47
2022/08/03 09:03:39;;;;;;;3.55;2.67;;;;;;;;;;4917249;29;20028;-43
2022/08/03 09:06:05;;;;;;;2.72;2.53;;;;;;;;;;4917461;29;20076;-52
2022/08/03 09:08:32;;;;;;;6.43;2.80;;;;;;;;;;4917446;29;20469;-49
2022/08/03 09:10:58;;;;;;;2.65;2.45;;;;;;;;;;4916566;29;20043;-47
2022/08/03 09:13:24;;;;;;;2.90;2.70;;;;;;;;;;4915371;29;20040;-47
2022/08/03 09:16:07;;;;;;;3.75;2.60;;;;;;;;;;4915645;29;20036;-49
2022/08/03 09:18:33;;;;;;;6.20;2.55;;;;;;;;;;4914148;29;20043;-52
2022/08/03 09:21:25;;;;;;;4.53;2.63;;;;;;;;;;4915707;29;20488;-51
2022/08/03 09:23:53;;;;;;;4.95;2.80;;;;;;;;;;4915738;29;20032;-53
2022/08/03 09:26:21;;;;;;;3.10;2.80;;;;;;;;;;4915254;29;20032;-50
2022/08/03 09:28:52;;;;;;;2.90;2.70;;;;;;;;;;4915604;29;20036;-44
2022/08/03 09:31:18;;;;;;;3.17;2.47;;;;;;;;;;4915110;29;20040;-47
2022/08/03 09:33:47;;;;;;;2.75;2.50;;;;;;;;;;4905717;29;20039;-46
2022/08/03 09:36:34;;;;;;;5.32;2.78;;;;;;;;;;4913944;29;20043;-46
2022/08/03 09:39:10;;;;;;;3.78;2.55;;;;;;;;;;4915350;29;20028;-45
2022/08/03 09:41:37;;;;;;;4.82;2.97;;;;;;;;;;4915322;29;20028;-51
2022/08/03 09:44:03;;;;;;;5.15;2.58;;;;;;;;;;4912070;29;20497;-50
2022/08/03 09:46:30;;;;;;;4.40;2.63;;;;;;;;;;4913715;29;20140;-51
2022/08/03 09:49:12;;;;;;;2.50;2.28;;;;;;;;;;4907401;29;20386;-48
2022/08/03 09:51:38;;;;;;;2.40;2.30;;;;;;;;;;4905194;29;20100;-50
2022/08/03 09:54:04;;;;;;;2.90;2.70;;;;;;;;;;4896244;29;20037;-46
2022/08/03 09:56:41;;;;;;;3.10;2.58;;;;;;;;;;4896421;29;20032;-43
2022/08/03 09:59:08;;;;;;;8.38;3.33;;;;;;;;;;4895979;29;20490;-48
2022/08/03 10:01:34;;;;;;;4.15;2.92;;;;;;;;;;4895764;29;20036;-48
2022/08/03 10:04:00;;;;;;;3.47;2.38;;;;;;;;;;4894980;29;20408;-50
2022/08/03 10:06:26;;;;;;;2.60;2.38;;;;;;;;;;4895912;29;20040;-47
2022/08/03 10:09:15;;;;;;;3.03;2.70;;;;;;;;;;4895742;29;20037;-43
2022/08/03 10:11:42;;;;;;;5.43;3.10;;;;;;;;;;4896266;29;20037;-49
2022/08/03 10:14:10;;;;;;;5.82;2.85;;;;;;;;;;4896047;29;20031;-50
2022/08/03 10:16:37;;;;;;;3.47;2.80;;;;;;;;;;4896054;29;20531;-46
2022/08/03 10:19:07;;;;;;;3.90;2.45;;;;;;;;;;4895725;29;20034;-48
2022/08/03 10:21:36;;;;;;;3.97;3.10;;;;;;;;;;4895891;29;20051;-50
2022/08/03 10:24:07;;;;;;;3.33;2.55;;;;;;;;;;4895675;29;20033;-45
2022/08/03 10:26:37;;;;;;;2.83;2.30;;;;;;;;;;4895661;29;20119;-47
2022/08/03 10:29:10;;;;;;;4.32;2.40;;;;;;;;;;4895949;29;20048;-50
2022/08/03 10:31:42;;;;;;;3.25;2.38;;;;;;;;;;4895815;29;20112;-46
2022/08/03 10:34:14;;;;;;;2.85;2.30;;;;;;;;;;4895783;29;20033;-43
2022/08/03 10:36:41;;;;;;;2.80;2.33;;;;;;;;;;4895444;29;20092;-51
2022/08/03 10:39:07;;;;;;;2.53;2.20;;;;;;;;;;4895950;29;20088;-47
2022/08/03 10:41:38;;;;;;;3.08;2.45;;;;;;;;;;4895882;29;20366;-53
2022/08/03 10:44:12;;;;;;;7.13;2.50;;;;;;;;;;4895585;29;20036;-51
2022/08/03 10:46:38;;;;;;;2.30;2.10;;;;;;;;;;4895920;29;20056;-49
2022/08/03 10:49:05;;;;;;;2.40;2.20;;;;;;;;;;4900662;29;20099;-50
2022/08/03 10:51:31;;;;;;;2.47;2.30;;;;;;;;;;4903911;29;20056;-42
2022/08/03 10:53:58;;;;;;;2.45;2.25;;;;;;;;;;4904335;29;20079;-47
2022/08/03 10:59:18;;;;;;;2.50;2.30;;;;;;;;;;4904370;29;20520;-46
2022/08/03 11:01:55;;;;;;;2.83;2.22;;;;;;;;;;4901038;29;20031;-47
2022/08/03 11:04:23;;;;;;;5.93;2.30;;;;;;;;;;4898383;29;20084;-47
2022/08/03 11:07:17;;;;;;;2.60;2.40;;;;;;;;;;4895736;29;20040;-52
2022/08/03 11:09:48;;;;;;;2.33;2.20;;;;;;;;;;4895640;29;20272;-52
2022/08/03 11:12:28;;;;;;;2.05;1.85;;;;;;;;;;4895338;29;20020;-54
2022/08/03 11:14:55;;;;;;;2.55;2.10;;;;;;;;;;4896414;29;20493;-47
2022/08/03 11:17:21;;;;;;;2.50;2.30;;;;;;;;;;4899107;29;20080;-47
2022/08/03 11:19:51;;;;;;;2.08;1.90;;;;;;;;;;4898799;29;20115;-42
2022/08/03 11:22:18;;;;;;;3.58;2.30;;;;;;;;;;4912257;29;20032;-48
2022/08/03 11:24:46;;;;;;;2.60;2.40;;;;;;;;;;4917638;29;20028;-49
2022/08/03 11:27:23;;;;;;;3.30;2.20;;;;;;;;;;4917767;29;20036;-48
2022/08/03 11:30:06;;;;;;;4.25;2.40;;;;;;;;;;4917784;29;20028;-49
2022/08/03 11:32:40;;;;;;;2.55;2.33;;;;;;;;;;4909048;29;20033;-46
2022/08/03 11:35:07;;;;;;;7.80;2.63;;;;;;;;;;4917576;29;20036;-48
2022/08/03 11:37:33;;;;;;;3.70;2.25;;;;;;;;;;4917497;29;20032;-48
2022/08/03 11:39:58;;;;;;;3.63;2.53;;;;;;;;;;4917084;29;20552;-45
2022/08/03 11:42:25;;;;;;;3.90;2.20;;;;;;;;;;4917043;29;20039;-47
2022/08/03 11:44:57;;;;;;;2.33;2.22;;;;;;;;;;4917304;29;20119;-47
2022/08/03 11:47:28;;;;;;;3.13;2.40;;;;;;;;;;4916887;29;20032;-45
2022/08/03 11:50:00;;;;;;;4.47;2.85;;;;;;;;;;4916683;29;20056;-46
2022/08/03 11:52:26;;;;;;;2.30;2.10;;;;;;;;;;4916146;29;20121;-52
2022/08/03 11:54:53;;;;;;;2.60;2.40;;;;;;;;;;4915884;29;20119;-49
2022/08/03 11:57:29;;;;;;;3.00;2.20;;;;;;;;;;4916410;29;20092;-51
2022/08/03 11:59:55;;;;;;;2.58;2.38;;;;;;;;;;4915540;29;20043;-45
2022/08/03 12:02:20;;;;;;;4.50;2.40;;;;;;;;;;4916757;29;20036;-46
2022/08/03 12:04:53;;;;;;;11.95;2.85;;;;;;;;;;4916325;29;20035;-49
2022/08/03 12:07:19;;;;;;;6.38;2.45;;;;;;;;;;4916810;29;20035;-51
2022/08/03 12:10:09;;;;;;;2.97;2.40;;;;;;;;;;4916967;29;20392;-50
2022/08/03 12:12:35;;;;;;;3.60;2.40;;;;;;;;;;4917060;29;20123;-46
2022/08/03 12:15:02;;;;;;;2.40;2.20;;;;;;;;;;4916621;29;20040;-50
2022/08/03 12:17:34;;;;;;;5.10;2.38;;;;;;;;;;4916699;29;20038;-46
2022/08/03 12:20:01;;;;;;;4.20;2.60;;;;;;;;;;4915994;29;20039;-45
2022/08/03 12:22:34;;;;;;;3.78;2.42;;;;;;;;;;4915291;29;20560;-46
2022/08/03 12:25:00;;;;;;;3.10;2.80;;;;;;;;;;4913200;29;20040;-45
2022/08/03 12:27:28;;;;;;;2.65;2.33;;;;;;;;;;4915888;29;20088;-48
2022/08/03 12:29:55;;;;;;;3.03;2.20;;;;;;;;;;4916583;29;20437;-44
2022/08/03 12:32:20;;;;;;;9.35;2.67;;;;;;;;;;4916326;29;20814;-52
2022/08/03 12:34:47;;;;;;;4.68;2.30;;;;;;;;;;4916321;29;20131;-43
2022/08/03 12:37:13;;;;;;;3.13;2.80;;;;;;;;;;4916226;29;20543;-43
2022/08/03 12:39:39;;;;;;;2.80;2.55;;;;;;;;;;4916290;29;20044;-52
2022/08/03 12:42:05;;;;;;;7.30;2.72;;;;;;;;;;4916454;29;20028;-48
2022/08/03 12:44:32;;;;;;;4.05;2.88;;;;;;;;;;4908041;29;20045;-42
2022/08/03 12:46:58;;;;;;;4.57;2.35;;;;;;;;;;4905827;29;20044;-46
2022/08/03 12:49:24;;;;;;;2.25;2.08;;;;;;;;;;4910465;29;20386;-47
2022/08/03 12:51:50;;;;;;;2.85;2.40;;;;;;;;;;4916249;29;20036;-49
2022/08/03 12:54:21;;;;;;;2.67;2.33;;;;;;;;;;4908942;29;20027;-49
2022/08/03 12:57:06;;;;;;;2.58;2.38;;;;;;;;;;4905121;29;20092;-46
2022/08/03 12:59:34;;;;;;;7.63;2.25;;;;;;;;;;4900966;29;20056;-53
2022/08/03 13:02:00;;;;;;;3.47;2.15;;;;;;;;;;4899798;29;20024;-49
2022/08/03 13:04:27;;;;;;;2.13;2.03;;;;;;;;;;4899628;29;20135;-45
2022/08/03 13:07:04;;;;;;;3.15;2.20;;;;;;;;;;4890371;29;20275;-51
2022/08/03 13:09:41;;;;;;;2.80;2.60;;;;;;;;;;4887599;29;20084;-46
2022/08/03 13:12:07;;;;;;;3.90;2.60;;;;;;;;;;4908303;29;20520;-50
2022/08/03 13:14:33;;;;;;;6.70;2.42;;;;;;;;;;4915337;29;20044;-50
2022/08/03 13:16:58;;;;;;;4.72;2.50;;;;;;;;;;4897920;29;20164;-50
2022/08/03 13:19:24;;;;;;;4.50;2.35;;;;;;;;;;4896907;29;20028;-45
2022/08/03 13:21:49;;;;;;;4.30;2.55;;;;;;;;;;4891607;29;20505;-49
2022/08/03 13:24:15;;;;;;;2.92;2.42;;;;;;;;;;4896538;29;20572;-48
2022/08/03 13:26:40;;;;;;;2.58;2.38;;;;;;;;;;4896777;29;20032;-48
2022/08/03 13:29:06;;;;;;;2.50;2.30;;;;;;;;;;4896489;29;20549;-44
2022/08/03 13:31:31;;;;;;;3.72;3.05;;;;;;;;;;4896425;29;20527;-48
2022/08/03 13:33:56;;;;;;;3.65;2.35;;;;;;;;;;4906775;29;20027;-47
2022/08/03 13:36:23;;;;;;;2.90;2.35;;;;;;;;;;4908563;29;20043;-45
2022/08/03 13:38:49;;;;;;;4.35;2.50;;;;;;;;;;4902612;29;20496;-49
2022/08/03 13:41:14;;;;;;;6.72;2.40;;;;;;;;;;4896489;29;20032;-48
2022/08/03 13:43:40;;;;;;;2.83;2.42;;;;;;;;;;4896482;29;20055;-50
2022/08/03 13:46:05;;;;;;;3.28;2.40;;;;;;;;;;4896119;29;20501;-51
2022/08/03 13:48:31;;;;;;;2.90;2.70;;;;;;;;;;4897392;29;20025;-46
2022/08/03 13:50:57;;;;;;;2.50;2.30;;;;;;;;;;4891454;29;20184;-49
2022/08/03 13:53:22;;;;;;;2.58;2.38;;;;;;;;;;4886107;29;20407;-46
2022/08/03 13:55:48;;;;;;;4.55;2.60;;;;;;;;;;4885934;29;20115;-44
2022/08/03 13:58:13;;;;;;;4.47;2.30;;;;;;;;;;4885168;29;20036;-47
2022/08/03 14:00:39;;;;;;;6.10;2.03;;;;;;;;;;4886870;29;20104;-45
2022/08/03 14:03:05;;;;;;;2.47;2.25;;;;;;;;;;4894782;29;20131;-45
2022/08/03 14:05:30;;;;;;;3.78;2.13;;;;;;;;;;4903242;29;20035;-51
2022/08/03 14:07:56;;;;;;;2.50;2.30;;;;;;;;;;4898579;29;20029;-53
2022/08/03 14:10:22;;;;;;;2.63;2.17;;;;;;;;;;4895813;29;20100;-46
2022/08/03 14:12:47;;;;;;;2.15;2.00;;;;;;;;;;4898301;29;20079;-48
2022/08/03 14:15:13;;;;;;;2.45;2.25;;;;;;;;;;4895903;29;20036;-55
2022/08/03 14:17:39;;;;;;;3.83;2.33;;;;;;;;;;4894481;29;20028;-51
2022/08/03 14:20:06;;;;;;;2.78;2.38;;;;;;;;;;4895978;29;20080;-52
2022/08/03 14:22:32;;;;;;;3.67;2.33;;;;;;;;;;4902100;29;20036;-53
2022/08/03 14:24:57;;;;;;;5.65;2.22;;;;;;;;;;4897055;29;20354;-45
2022/08/03 14:27:23;;;;;;;2.78;2.50;;;;;;;;;;4896041;29;20032;-45
2022/08/03 14:29:48;;;;;;;2.65;2.33;;;;;;;;;;4895959;29;20035;-52
2022/08/03 14:32:14;;;;;;;2.65;2.20;;;;;;;;;;4905878;29;20043;-51
2022/08/03 14:34:40;;;;;;;2.47;2.20;;;;;;;;;;4903596;29;20121;-45
2022/08/03 14:37:05;;;;;;;2.38;2.17;;;;;;;;;;4905129;29;20051;-43
2022/08/03 14:39:30;;;;;;;2.65;2.30;;;;;;;;;;4905157;29;20478;-47
2022/08/03 14:41:56;;;;;;;4.45;2.20;;;;;;;;;;4903666;29;20043;-47
2022/08/03 14:44:21;;;;;;;5.25;2.40;;;;;;;;;;4903188;29;20039;-47
2022/08/03 14:46:47;;;;;;;2.50;2.30;;;;;;;;;;4905315;29;20032;-45
2022/08/03 14:49:12;;;;;;;2.35;2.20;;;;;;;;;;4903622;29;20096;-46
2022/08/03 14:51:37;;;;;;;2.40;2.20;;;;;;;;;;4907558;29;20052;-55
2022/08/03 14:54:03;;;;;;;2.50;2.30;;;;;;;;;;4908344;29;20623;-45
2022/08/03 14:56:28;;;;;;;3.15;2.50;;;;;;;;;;4907943;29;20115;-49
2022/08/03 14:58:55;;;;;;;3.85;2.70;;;;;;;;;;4909244;29;20069;-44